createdAt,value
2023-09-08T00:00:25.921Z,19.64
2023-09-08T00:03:11.517Z,19.62
2023-09-08T00:05:56.589Z,19.65
2023-09-08T00:08:42.049Z,19.57
2023-09-08T00:11:26.921Z,19.51
2023-09-08T00:14:12.264Z,19.41
2023-09-08T00:16:57.437Z,19.52
2023-09-08T00:19:42.628Z,19.72
2023-09-08T00:22:28.028Z,19.69
2023-09-08T00:25:12.880Z,19.60
2023-09-08T00:27:57.828Z,19.51
2023-09-08T00:30:42.805Z,19.38
2023-09-08T00:33:28.511Z,19.40
2023-09-08T00:36:13.368Z,19.50
2023-09-08T00:38:58.886Z,19.46
2023-09-08T00:41:43.894Z,19.43
2023-09-08T00:44:28.905Z,19.43
2023-09-08T00:47:14.250Z,19.41
2023-09-08T00:49:59.884Z,19.69
2023-09-08T00:52:45.212Z,19.39
2023-09-08T00:55:30.863Z,19.54
2023-09-08T00:58:16.144Z,19.56
2023-09-08T01:01:01.418Z,19.37
2023-09-08T01:03:46.923Z,19.21
2023-09-08T01:06:33.835Z,19.12
2023-09-08T01:09:20.271Z,19.27
2023-09-08T01:12:07.739Z,19.10
2023-09-08T01:14:52.783Z,19.69
2023-09-08T01:17:37.652Z,19.33
2023-09-08T01:20:31.192Z,19.50
2023-09-08T01:23:29.237Z,19.24
2023-09-08T01:26:22.558Z,19.34
2023-09-08T01:29:07.888Z,20.87
2023-09-08T01:31:53.347Z,20.34
2023-09-08T01:34:40.736Z,20.34
2023-09-08T01:37:25.619Z,19.69
2023-09-08T01:40:12.089Z,20.01
2023-09-08T01:42:57.369Z,20.91
2023-09-08T01:45:42.710Z,21.35
2023-09-08T01:48:27.656Z,21.45
2023-09-08T01:51:12.580Z,21.18
2023-09-08T01:53:57.608Z,21.10
2023-09-08T01:56:42.648Z,21.09
2023-09-08T01:59:27.554Z,21.21
2023-09-08T02:02:12.900Z,21.30
2023-09-08T02:04:57.887Z,21.34
2023-09-08T02:07:42.971Z,21.42
2023-09-08T02:10:28.210Z,20.62
2023-09-08T02:13:13.584Z,20.37
2023-09-08T02:15:59.652Z,20.60
2023-09-08T02:18:46.154Z,21.07
2023-09-08T02:21:31.192Z,20.61
2023-09-08T02:24:16.575Z,20.55
2023-09-08T02:27:01.593Z,20.22
2023-09-08T02:29:46.540Z,19.24
2023-09-08T02:32:31.484Z,18.77
2023-09-08T02:35:17.146Z,18.58
2023-09-08T02:38:02.033Z,19.12
2023-09-08T02:40:46.924Z,19.80
2023-09-08T02:43:31.768Z,20.57
2023-09-08T02:46:17.644Z,21.09
2023-09-08T02:49:03.943Z,20.86
2023-09-08T02:51:49.645Z,19.74
2023-09-08T02:54:34.554Z,19.18
2023-09-08T02:57:19.538Z,18.62
2023-09-08T03:00:05.879Z,19.69
2023-09-08T03:02:50.822Z,20.70
2023-09-08T03:05:36.132Z,21.43
2023-09-08T03:08:24.321Z,21.47
2023-09-08T03:11:09.885Z,21.21
2023-09-08T03:13:55.582Z,20.30
2023-09-08T03:16:41.019Z,19.70
2023-09-08T03:19:26.129Z,20.73
2023-09-08T03:22:11.514Z,20.98
2023-09-08T03:24:56.349Z,20.57
2023-09-08T03:27:41.509Z,20.38
2023-09-08T03:30:26.680Z,20.15
2023-09-08T03:33:12.445Z,19.73
2023-09-08T03:35:58.242Z,20.27
2023-09-08T03:38:43.670Z,20.17
2023-09-08T03:41:28.589Z,20.32
2023-09-08T03:44:13.483Z,20.05
2023-09-08T03:46:58.363Z,20.18
2023-09-08T03:49:43.709Z,19.69
2023-09-08T03:52:29.050Z,19.76
2023-09-08T03:55:14.904Z,19.61
2023-09-08T03:58:00.068Z,19.84
2023-09-08T04:00:44.942Z,20.19
2023-09-08T04:03:30.481Z,20.63
2023-09-08T04:06:16.503Z,20.86
2023-09-08T04:09:01.753Z,21.10
2023-09-08T04:11:46.679Z,20.63
2023-09-08T04:14:32.598Z,19.94
2023-09-08T04:17:19.336Z,20.05
2023-09-08T04:20:09.185Z,20.17
2023-09-08T04:22:54.376Z,20.67
2023-09-08T04:25:39.736Z,19.70
2023-09-08T04:28:25.018Z,20.06
2023-09-08T04:31:10.053Z,18.73
2023-09-08T04:33:55.986Z,18.35
2023-09-08T04:36:40.926Z,18.33
2023-09-08T04:39:25.763Z,19.87
2023-09-08T04:42:10.875Z,20.29
2023-09-08T04:44:56.560Z,18.85
2023-09-08T04:47:41.479Z,18.43
2023-09-08T04:50:26.867Z,18.24
2023-09-08T04:53:11.772Z,18.06
2023-09-08T04:55:56.894Z,18.20
2023-09-08T04:58:41.790Z,18.01
2023-09-08T05:01:26.814Z,17.70
2023-09-08T05:04:13.028Z,17.69
2023-09-08T05:06:57.979Z,17.58
2023-09-08T05:09:43.111Z,18.10
2023-09-08T05:12:27.903Z,19.42
2023-09-08T05:15:16.458Z,19.39
2023-09-08T05:18:02.063Z,19.30
2023-09-08T05:20:49.073Z,19.25
2023-09-08T05:23:34.862Z,20.02
2023-09-08T05:26:19.785Z,20.13
2023-09-08T05:29:04.847Z,20.47
2023-09-08T05:31:50.521Z,20.02
2023-09-08T05:34:35.514Z,19.72
2023-09-08T05:37:20.446Z,18.87
2023-09-08T05:40:06.541Z,18.67
2023-09-08T05:42:52.135Z,19.02
2023-09-08T05:45:37.478Z,19.17
2023-09-08T05:48:22.328Z,19.26
2023-09-08T05:51:08.009Z,20.55
2023-09-08T05:53:53.044Z,20.77
2023-09-08T05:56:39.717Z,20.35
2023-09-08T05:59:24.993Z,19.53
2023-09-08T06:02:10.146Z,19.70
2023-09-08T06:04:56.822Z,19.36
2023-09-08T06:07:50.916Z,19.82
2023-09-08T06:10:43.071Z,19.14
2023-09-08T06:13:28.316Z,19.05
2023-09-08T06:16:13.553Z,19.65
2023-09-08T06:18:58.794Z,19.80
2023-09-08T06:21:43.804Z,20.48
2023-09-08T06:24:29.080Z,19.56
2023-09-08T06:27:15.733Z,19.31
2023-09-08T06:30:00.837Z,18.90
2023-09-08T06:32:46.042Z,18.93
2023-09-08T06:35:31.230Z,19.06
2023-09-08T06:38:16.234Z,19.03
2023-09-08T06:41:02.356Z,19.00
2023-09-08T06:43:47.567Z,18.92
2023-09-08T06:46:32.623Z,19.21
2023-09-08T06:49:18.036Z,19.31
2023-09-08T06:52:03.688Z,19.14
2023-09-08T06:54:48.759Z,19.20
2023-09-08T06:57:34.255Z,19.20
2023-09-08T07:00:21.349Z,19.38
2023-09-08T07:03:07.354Z,19.54
2023-09-08T07:05:52.925Z,19.71
2023-09-08T07:08:38.295Z,19.61
2023-09-08T07:11:23.344Z,19.59
2023-09-08T07:14:08.424Z,19.97
2023-09-08T07:16:53.708Z,19.94
2023-09-08T07:19:39.635Z,19.96
2023-09-08T07:22:24.703Z,20.20
2023-09-08T07:25:10.901Z,20.26
2023-09-08T07:27:55.945Z,20.49
2023-09-08T07:30:41.383Z,20.53
2023-09-08T07:33:26.567Z,20.60
2023-09-08T07:36:12.109Z,20.69
2023-09-08T07:38:57.208Z,20.93
2023-09-08T07:41:42.577Z,21.23
2023-09-08T07:44:28.006Z,21.55
2023-09-08T07:47:13.159Z,21.66
2023-09-08T07:50:24.888Z,21.85
2023-09-08T07:53:09.895Z,21.79
2023-09-08T07:55:55.424Z,22.13
2023-09-08T07:58:40.884Z,22.43
2023-09-08T08:01:26.319Z,22.59
2023-09-08T08:04:11.821Z,22.64
2023-09-08T08:06:57.236Z,22.81
2023-09-08T08:09:44.922Z,23.00
2023-09-08T08:12:30.501Z,23.13
2023-09-08T08:15:15.912Z,23.23
2023-09-08T08:18:01.051Z,23.31
2023-09-08T08:20:46.380Z,23.41
2023-09-08T08:23:32.278Z,23.51
2023-09-08T08:26:19.448Z,23.69
2023-09-08T08:29:04.921Z,23.93
2023-09-08T08:31:50.802Z,23.98
2023-09-08T08:34:35.647Z,23.83
2023-09-08T08:37:20.629Z,23.95
2023-09-08T08:40:06.743Z,24.05
2023-09-08T08:42:55.951Z,24.16
2023-09-08T08:45:44.156Z,24.33
2023-09-08T08:48:30.863Z,24.59
2023-09-08T08:51:18.986Z,24.72
2023-09-08T08:54:06.714Z,24.94
2023-09-08T08:56:52.773Z,25.18
2023-09-08T08:59:38.033Z,25.20
2023-09-08T09:02:26.502Z,25.51
2023-09-08T09:05:15.834Z,25.63
2023-09-08T09:08:04.343Z,25.53
2023-09-08T09:10:50.353Z,25.76
2023-09-08T09:13:35.562Z,25.72
2023-09-08T09:16:21.373Z,25.96
2023-09-08T09:19:06.281Z,26.19
2023-09-08T09:21:55.665Z,26.30
2023-09-08T09:24:44.466Z,26.41
2023-09-08T09:27:32.305Z,26.45
2023-09-08T09:30:17.263Z,26.37
2023-09-08T09:33:06.204Z,26.72
2023-09-08T09:35:54.022Z,26.87
2023-09-08T09:38:38.961Z,26.83
2023-09-08T09:41:24.326Z,26.85
2023-09-08T09:44:10.506Z,27.15
2023-09-08T09:46:55.966Z,27.49
2023-09-08T09:49:48.969Z,27.41
2023-09-08T09:52:40.384Z,27.58
2023-09-08T09:55:26.167Z,27.53
2023-09-08T09:58:12.367Z,27.58
2023-09-08T10:00:57.660Z,27.65
2023-09-08T10:03:43.503Z,27.89
2023-09-08T10:06:29.029Z,27.80
2023-09-08T10:09:15.229Z,28.11
2023-09-08T10:12:05.819Z,28.00
2023-09-08T10:14:54.968Z,28.11
2023-09-08T10:17:42.548Z,28.36
2023-09-08T10:20:29.752Z,28.47
2023-09-08T10:23:25.490Z,28.38
2023-09-08T10:26:12.452Z,28.56
2023-09-08T10:28:58.102Z,28.81
2023-09-08T10:31:44.909Z,29.13
2023-09-08T10:34:32.190Z,28.94
2023-09-08T10:37:27.105Z,28.88
2023-09-08T10:40:27.643Z,28.71
2023-09-08T10:43:12.514Z,28.89
2023-09-08T10:45:58.285Z,29.13
2023-09-08T10:48:47.143Z,29.25
2023-09-08T10:51:32.103Z,29.28
2023-09-08T10:54:44.296Z,29.30
2023-09-08T10:57:32.231Z,29.70
2023-09-08T11:00:19.064Z,29.72
2023-09-08T11:03:07.459Z,29.51
2023-09-08T11:05:52.568Z,29.61
2023-09-08T11:08:47.336Z,29.66
2023-09-08T11:11:34.455Z,29.78
2023-09-08T11:14:19.707Z,30.06
2023-09-08T11:17:04.778Z,30.31
2023-09-08T11:19:51.338Z,30.46
2023-09-08T11:22:37.684Z,30.36
2023-09-08T11:25:23.509Z,30.56
2023-09-08T11:28:08.960Z,30.67
2023-09-08T11:30:56.281Z,30.51
2023-09-08T11:33:41.503Z,30.50
2023-09-08T11:36:27.424Z,30.54
2023-09-08T11:39:12.657Z,30.55
2023-09-08T11:42:02.634Z,30.64
2023-09-08T11:44:49.105Z,30.72
2023-09-08T11:47:34.082Z,31.01
2023-09-08T11:50:20.191Z,31.07
2023-09-08T11:53:05.171Z,31.01
2023-09-08T11:55:50.559Z,30.89
2023-09-08T11:58:35.763Z,31.03
2023-09-08T12:01:21.327Z,30.87
2023-09-08T12:04:06.461Z,31.33
2023-09-08T12:06:54.156Z,31.38
2023-09-08T12:09:38.992Z,31.40
2023-09-08T12:12:24.009Z,31.58
2023-09-08T12:15:09.160Z,31.54
2023-09-08T12:17:54.770Z,31.43
2023-09-08T12:20:41.010Z,31.57
2023-09-08T12:23:26.190Z,31.36
2023-09-08T12:26:11.586Z,31.29
2023-09-08T12:28:56.792Z,31.86
2023-09-08T12:31:43.805Z,31.60
2023-09-08T12:34:28.868Z,31.67
2023-09-08T12:37:14.256Z,31.31
2023-09-08T12:40:02.014Z,31.71
2023-09-08T12:42:49.905Z,31.79
2023-09-08T12:45:47.756Z,31.46
2023-09-08T12:48:34.225Z,31.48
2023-09-08T12:51:19.414Z,31.99
2023-09-08T12:54:04.870Z,32.09
2023-09-08T12:56:51.704Z,32.33
2023-09-08T12:59:36.915Z,32.65
2023-09-08T13:02:22.425Z,32.90
2023-09-08T13:05:09.074Z,32.89
2023-09-08T13:07:54.376Z,32.51
2023-09-08T13:10:39.978Z,32.42
2023-09-08T13:13:25.437Z,32.33
2023-09-08T13:16:10.501Z,32.28
2023-09-08T13:18:56.174Z,32.41
2023-09-08T13:21:41.329Z,32.53
2023-09-08T13:24:26.686Z,32.31
2023-09-08T13:27:12.564Z,32.51
2023-09-08T13:30:14.196Z,32.73
2023-09-08T13:32:59.726Z,32.82
2023-09-08T13:35:44.610Z,32.96
2023-09-08T13:38:29.889Z,32.98
2023-09-08T13:41:16.124Z,32.95
2023-09-08T13:44:01.903Z,33.10
2023-09-08T13:46:47.951Z,32.71
2023-09-08T13:49:33.734Z,32.75
2023-09-08T13:52:19.348Z,32.68
2023-09-08T13:55:30.332Z,32.62
2023-09-08T13:58:09.952Z,32.35
2023-09-08T14:00:59.684Z,32.84
2023-09-08T14:04:02.706Z,32.99
2023-09-08T14:06:50.959Z,33.19
2023-09-08T14:09:49.388Z,32.92
2023-09-08T14:12:39.247Z,32.95
2023-09-08T14:15:24.546Z,33.20
2023-09-08T14:18:09.628Z,32.62
2023-09-08T14:20:54.650Z,33.03
2023-09-08T14:23:39.817Z,33.24
2023-09-08T14:26:25.863Z,33.04
2023-09-08T14:29:11.123Z,32.64
2023-09-08T14:31:56.606Z,32.89
2023-09-08T14:34:41.597Z,32.92
2023-09-08T14:37:26.909Z,32.97
2023-09-08T14:40:13.330Z,32.86
2023-09-08T14:42:58.392Z,32.77
2023-09-08T14:45:43.355Z,32.97
2023-09-08T14:48:28.466Z,33.46
2023-09-08T14:51:13.653Z,33.45
2023-09-08T14:53:59.504Z,33.53
2023-09-08T14:56:44.395Z,33.70
2023-09-08T14:59:29.301Z,33.79
2023-09-08T15:02:14.345Z,34.07
2023-09-08T15:04:59.522Z,34.74
2023-09-08T15:07:44.426Z,35.18
2023-09-08T15:10:29.851Z,35.36
2023-09-08T15:13:14.838Z,35.51
2023-09-08T15:16:00.785Z,34.67
2023-09-08T15:18:45.857Z,34.52
2023-09-08T15:21:33.230Z,34.47
2023-09-08T15:24:18.299Z,34.37
2023-09-08T15:27:04.207Z,34.76
2023-09-08T15:29:49.589Z,34.19
2023-09-08T15:32:34.551Z,33.02
2023-09-08T15:35:20.208Z,31.88
2023-09-08T15:38:05.524Z,31.60
2023-09-08T15:41:09.440Z,31.26
2023-09-08T15:43:56.274Z,30.99
2023-09-08T15:46:42.326Z,30.56
2023-09-08T15:49:27.476Z,30.33
2023-09-08T15:52:16.491Z,30.32
2023-09-08T15:55:01.947Z,30.01
2023-09-08T15:57:47.055Z,29.94
2023-09-08T16:00:34.015Z,29.94
2023-09-08T16:03:19.577Z,29.79
2023-09-08T16:06:04.933Z,29.79
2023-09-08T16:08:50.209Z,29.75
2023-09-08T16:11:35.331Z,29.51
2023-09-08T16:14:20.479Z,29.53
2023-09-08T16:17:05.938Z,29.53
2023-09-08T16:19:51.122Z,29.60
2023-09-08T16:22:36.419Z,29.29
2023-09-08T16:25:21.951Z,29.29
2023-09-08T16:28:07.281Z,29.29
2023-09-08T16:30:53.150Z,29.18
2023-09-08T16:33:38.696Z,29.20
2023-09-08T16:36:24.535Z,29.12
2023-09-08T16:39:09.613Z,29.03
2023-09-08T16:41:55.128Z,28.96
2023-09-08T16:44:44.489Z,28.95
2023-09-08T16:47:30.563Z,28.86
2023-09-08T16:50:15.638Z,28.86
2023-09-08T16:53:03.651Z,28.80
2023-09-08T16:55:48.898Z,28.88
2023-09-08T16:58:33.895Z,28.74
2023-09-08T17:01:19.491Z,28.83
2023-09-08T17:04:04.763Z,28.83
2023-09-08T17:06:50.397Z,29.22
2023-09-08T17:09:35.632Z,29.48
2023-09-08T17:12:21.187Z,29.34
2023-09-08T17:15:07.663Z,29.00
2023-09-08T17:17:53.034Z,28.79
2023-09-08T17:20:38.151Z,28.63
2023-09-08T17:23:25.169Z,28.37
2023-09-08T17:26:11.196Z,28.25
2023-09-08T17:28:56.344Z,28.17
2023-09-08T17:31:41.659Z,28.21
2023-09-08T17:34:26.900Z,27.92
2023-09-08T17:37:11.847Z,27.88
2023-09-08T17:39:57.023Z,27.70
2023-09-08T17:42:42.336Z,27.54
2023-09-08T17:45:28.135Z,27.42
2023-09-08T17:48:13.634Z,27.30
2023-09-08T17:50:59.728Z,27.10
2023-09-08T17:53:44.994Z,27.24
2023-09-08T17:56:31.103Z,26.94
2023-09-08T17:59:16.278Z,26.68
2023-09-08T18:02:01.779Z,26.45
2023-09-08T18:04:46.999Z,26.22
2023-09-08T18:07:32.392Z,26.03
2023-09-08T18:10:17.656Z,26.04
2023-09-08T18:13:02.961Z,25.80
2023-09-08T18:15:47.795Z,25.58
2023-09-08T18:18:33.766Z,25.46
2023-09-08T18:21:18.803Z,25.37
2023-09-08T18:24:04.156Z,25.33
2023-09-08T18:26:49.328Z,25.40
2023-09-08T18:29:34.438Z,25.07
2023-09-08T18:32:19.726Z,24.96
2023-09-08T18:35:05.419Z,24.90
2023-09-08T18:37:50.511Z,24.89
2023-09-08T18:40:36.299Z,24.89
2023-09-08T18:43:21.547Z,24.71
2023-09-08T18:46:07.050Z,24.67
2023-09-08T18:48:52.062Z,24.55
2023-09-08T18:51:37.790Z,24.59
2023-09-08T18:54:28.013Z,24.45
2023-09-08T18:57:13.143Z,24.59
2023-09-08T18:59:58.750Z,24.27
2023-09-08T19:02:44.211Z,24.02
2023-09-08T19:05:29.405Z,24.05
2023-09-08T19:08:14.785Z,23.88
2023-09-08T19:11:00.091Z,23.84
2023-09-08T19:13:45.901Z,24.01
2023-09-08T19:16:31.830Z,23.65
2023-09-08T19:19:16.765Z,23.89
2023-09-08T19:22:02.215Z,23.52
2023-09-08T19:24:49.245Z,23.79
2023-09-08T19:27:34.184Z,23.72
2023-09-08T19:30:19.884Z,23.63
2023-09-08T19:33:05.556Z,23.78
2023-09-08T19:35:50.996Z,23.79
2023-09-08T19:38:35.820Z,23.84
2023-09-08T19:41:25.242Z,23.73
2023-09-08T19:44:10.282Z,23.87
2023-09-08T19:46:55.670Z,23.71
2023-09-08T19:49:42.758Z,23.62
2023-09-08T19:52:28.347Z,23.69
2023-09-08T19:57:59.800Z,23.55
2023-09-08T20:00:45.068Z,23.49
2023-09-08T20:03:30.362Z,23.54
2023-09-08T20:06:16.603Z,23.54
2023-09-08T20:09:02.065Z,23.50
2023-09-08T20:11:47.299Z,23.30
2023-09-08T20:14:33.402Z,23.56
2023-09-08T20:17:19.315Z,23.26
2023-09-08T20:20:05.927Z,23.59
2023-09-08T20:22:51.185Z,23.31
2023-09-08T20:25:36.554Z,23.17
2023-09-08T20:28:21.706Z,22.96
2023-09-08T20:31:17.069Z,23.07
2023-09-08T20:34:03.928Z,23.33
2023-09-08T20:36:48.930Z,23.38
2023-09-08T20:39:34.031Z,23.32
2023-09-08T20:42:19.534Z,23.17
2023-09-08T20:45:05.063Z,23.20
2023-09-08T20:47:50.711Z,23.31
2023-09-08T20:50:36.037Z,23.44
2023-09-08T20:53:21.554Z,23.23
2023-09-08T20:56:08.714Z,23.02
2023-09-08T20:58:53.756Z,23.01
2023-09-08T21:01:39.607Z,22.95
2023-09-08T21:04:24.709Z,23.12
2023-09-08T21:07:10.444Z,22.96
2023-09-08T21:09:56.125Z,22.90
2023-09-08T21:12:41.368Z,22.80
2023-09-08T21:15:26.618Z,22.76
2023-09-08T21:18:11.821Z,22.26
2023-09-08T21:20:56.881Z,22.37
2023-09-08T21:23:43.113Z,22.69
2023-09-08T21:26:28.902Z,23.02
2023-09-08T21:29:14.790Z,22.88
2023-09-08T21:32:00.315Z,22.63
2023-09-08T21:34:45.525Z,22.63
2023-09-08T21:37:31.105Z,22.59
2023-09-08T21:40:17.275Z,22.60
2023-09-08T21:43:03.877Z,22.76
2023-09-08T21:45:52.201Z,22.50
2023-09-08T21:48:37.611Z,22.43
2023-09-08T21:51:23.285Z,22.31
2023-09-08T21:54:08.563Z,22.93
2023-09-08T21:56:53.849Z,22.73
2023-09-08T21:59:39.312Z,22.86
2023-09-08T22:02:24.209Z,22.48
2023-09-08T22:05:10.127Z,22.65
2023-09-08T22:07:55.399Z,22.73
2023-09-08T22:10:40.650Z,22.24
2023-09-08T22:13:26.042Z,21.72
2023-09-08T22:16:11.381Z,21.76
2023-09-08T22:18:57.049Z,21.55
2023-09-08T22:21:45.827Z,21.74
2023-09-08T22:24:31.816Z,21.58
2023-09-08T22:27:16.902Z,21.64
2023-09-08T22:30:05.106Z,21.47
2023-09-08T22:32:51.003Z,21.91
2023-09-08T22:35:37.618Z,21.94
2023-09-08T22:38:23.100Z,22.18
2023-09-08T22:41:08.395Z,22.58
2023-09-08T22:43:53.986Z,22.36
2023-09-08T22:46:39.080Z,22.20
2023-09-08T22:49:25.161Z,22.52
2023-09-08T22:52:10.621Z,22.32
2023-09-08T22:55:05.421Z,22.33
2023-09-08T22:57:58.697Z,22.56
2023-09-08T23:00:44.334Z,22.47
2023-09-08T23:03:29.503Z,22.25
2023-09-08T23:06:15.247Z,22.19
2023-09-08T23:09:01.034Z,22.41
2023-09-08T23:11:46.369Z,22.61
2023-09-08T23:14:32.423Z,22.40
2023-09-08T23:17:17.862Z,22.58
2023-09-08T23:20:08.979Z,22.79
2023-09-08T23:22:54.273Z,22.90
2023-09-08T23:25:39.616Z,22.66
2023-09-08T23:28:25.193Z,22.55
2023-09-08T23:31:10.212Z,21.78
2023-09-08T23:33:55.610Z,22.38
2023-09-08T23:36:40.750Z,22.18
2023-09-08T23:39:26.651Z,22.47
2023-09-08T23:42:11.904Z,22.44
2023-09-08T23:44:56.703Z,22.40
2023-09-08T23:47:41.810Z,22.02
2023-09-08T23:50:51.021Z,21.88
2023-09-08T23:53:38.805Z,21.83
2023-09-08T23:56:23.908Z,22.24
2023-09-08T23:59:09.520Z,22.10
